sensor_id;sensor_type;location;lat;lon;timestamp;pressure;altitude;pressure_sealevel;temperature;humidity
15971;BME280;59785;52.582;13.892;2022-11-15T00:35:15;100814.78;;;3.09;100.00
15971;BME280;59785;52.582;13.892;2022-11-15T00:38:01;100816.16;;;3.14;100.00
15971;BME280;59785;52.582;13.892;2022-11-15T00:40:46;100809.50;;;3.09;100.00
15971;BME280;59785;52.582;13.892;2022-11-15T00:43:31;100818.59;;;3.05;100.00
15971;BME280;59785;52.582;13.892;2022-11-15T00:46:16;100804.63;;;3.03;100.00
15971;BME280;59785;52.582;13.892;2022-11-15T00:49:01;100800.28;;;3.02;100.00
15971;BME280;59785;52.582;13.892;2022-11-15T00:51:45;100796.88;;;3.00;100.00
15971;BME280;59785;52.582;13.892;2022-11-15T00:54:30;100799.28;;;2.90;100.00
15971;BME280;59785;52.582;13.892;2022-11-15T00:57:14;100796.63;;;2.90;100.00
15971;BME280;59785;52.582;13.892;2022-11-15T00:59:58;100784.19;;;2.92;100.00
15971;BME280;59785;52.582;13.892;2022-11-15T01:02:43;100782.66;;;2.88;100.00
15971;BME280;59785;52.582;13.892;2022-11-15T01:05:28;100777.91;;;2.93;100.00
15971;BME280;59785;52.582;13.892;2022-11-15T01:08:14;100776.25;;;2.92;100.00
15971;BME280;59785;52.582;13.892;2022-11-15T01:11:04;100780.03;;;2.88;100.00
15971;BME280;59785;52.582;13.892;2022-11-15T01:13:49;100770.81;;;2.93;100.00
15971;BME280;59785;52.582;13.892;2022-11-15T01:16:33;100771.25;;;2.87;100.00
15971;BME280;59785;52.582;13.892;2022-11-15T01:19:18;100779.91;;;2.89;100.00
15971;BME280;59785;52.582;13.892;2022-11-15T01:22:03;100768.50;;;2.89;100.00
15971;BME280;59785;52.582;13.892;2022-11-15T01:24:49;100765.09;;;2.87;100.00
15971;BME280;59785;52.582;13.892;2022-11-15T01:27:34;100760.22;;;2.81;100.00
15971;BME280;59785;52.582;13.892;2022-11-15T01:30:18;100764.66;;;2.80;100.00
15971;BME280;59785;52.582;13.892;2022-11-15T01:33:03;100764.22;;;2.73;100.00
15971;BME280;59785;52.582;13.892;2022-11-15T01:35:47;100751.50;;;2.66;100.00
15971;BME280;59785;52.582;13.892;2022-11-15T01:38:32;100751.75;;;2.63;100.00
15971;BME280;59785;52.582;13.892;2022-11-15T01:41:19;100754.78;;;2.56;100.00
15971;BME280;59785;52.582;13.892;2022-11-15T01:44:42;100748.81;;;2.53;100.00
15971;BME280;59785;52.582;13.892;2022-11-15T01:47:31;100751.38;;;2.54;100.00
15971;BME280;59785;52.582;13.892;2022-11-15T01:50:21;100740.81;;;2.54;100.00
15971;BME280;59785;52.582;13.892;2022-11-15T01:53:07;100745.56;;;2.49;100.00
15971;BME280;59785;52.582;13.892;2022-11-15T01:55:52;100739.41;;;2.49;100.00
15971;BME280;59785;52.582;13.892;2022-11-15T01:58:38;100737.81;;;2.46;100.00
15971;BME280;59785;52.582;13.892;2022-11-15T02:01:25;100726.50;;;2.44;100.00
15971;BME280;59785;52.582;13.892;2022-11-15T02:04:21;100726.50;;;2.44;100.00
15971;BME280;59785;52.582;13.892;2022-11-15T02:07:10;100736.75;;;2.49;100.00
15971;BME280;59785;52.582;13.892;2022-11-15T02:10:04;100726.50;;;2.44;100.00
15971;BME280;59785;52.582;13.892;2022-11-15T02:12:51;100722.16;;;2.43;100.00
15971;BME280;59785;52.582;13.892;2022-11-15T02:15:43;100719.91;;;2.37;100.00
15971;BME280;59785;52.582;13.892;2022-11-15T02:18:51;100716.75;;;2.32;100.00
15971;BME280;59785;52.582;13.892;2022-11-15T02:21:43;100711.75;;;2.27;100.00
15971;BME280;59785;52.582;13.892;2022-11-15T02:24:55;100707.00;;;2.32;100.00
15971;BME280;59785;52.582;13.892;2022-11-15T02:30:58;100709.50;;;2.21;100.00
15971;BME280;59785;52.582;13.892;2022-11-15T02:40:37;100694.59;;;2.20;100.00
15971;BME280;59785;52.582;13.892;2022-11-15T02:43:30;100685.94;;;2.18;100.00
15971;BME280;59785;52.582;13.892;2022-11-15T02:46:38;100693.56;;;2.23;100.00
15971;BME280;59785;52.582;13.892;2022-11-15T02:49:47;100689.84;;;2.25;100.00
15971;BME280;59785;52.582;13.892;2022-11-15T02:52:32;100698.34;;;2.30;100.00
15971;BME280;59785;52.582;13.892;2022-11-15T02:58:29;100694.56;;;2.47;100.00
15971;BME280;59785;52.582;13.892;2022-11-15T03:01:38;100694.44;;;2.49;100.00
15971;BME280;59785;52.582;13.892;2022-11-15T03:04:37;100695.59;;;2.45;100.00
15971;BME280;59785;52.582;13.892;2022-11-15T03:07:45;100694.03;;;2.42;100.00
15971;BME280;59785;52.582;13.892;2022-11-15T03:10:51;100697.59;;;2.41;100.00
15971;BME280;59785;52.582;13.892;2022-11-15T03:13:54;100698.88;;;2.35;100.00
15971;BME280;59785;52.582;13.892;2022-11-15T03:16:50;100685.84;;;2.32;100.00
15971;BME280;59785;52.582;13.892;2022-11-15T03:19:48;100686.50;;;2.36;100.00
15971;BME280;59785;52.582;13.892;2022-11-15T03:22:39;100688.81;;;2.28;100.00
15971;BME280;59785;52.582;13.892;2022-11-15T03:25:25;100692.06;;;2.31;100.00
15971;BME280;59785;52.582;13.892;2022-11-15T03:28:14;100678.84;;;2.31;100.00
15971;BME280;59785;52.582;13.892;2022-11-15T03:31:01;100692.06;;;2.31;100.00
15971;BME280;59785;52.582;13.892;2022-11-15T03:34:10;100683.22;;;2.32;100.00
15971;BME280;59785;52.582;13.892;2022-11-15T03:36:57;100676.88;;;2.35;100.00
15971;BME280;59785;52.582;13.892;2022-11-15T03:39:42;100674.03;;;2.38;100.00
15971;BME280;59785;52.582;13.892;2022-11-15T03:45:26;100669.25;;;2.30;100.00
15971;BME280;59785;52.582;13.892;2022-11-15T03:48:18;100668.50;;;2.28;100.00
15971;BME280;59785;52.582;13.892;2022-11-15T03:51:05;100668.91;;;2.22;100.00
15971;BME280;59785;52.582;13.892;2022-11-15T03:53:51;100661.72;;;2.24;100.00
15971;BME280;59785;52.582;13.892;2022-11-15T03:56:36;100670.59;;;2.23;100.00
15971;BME280;59785;52.582;13.892;2022-11-15T03:59:20;100665.41;;;2.22;100.00
15971;BME280;59785;52.582;13.892;2022-11-15T04:02:05;100661.28;;;2.17;100.00
15971;BME280;59785;52.582;13.892;2022-11-15T04:04:50;100658.75;;;2.16;100.00
15971;BME280;59785;52.582;13.892;2022-11-15T04:07:34;100665.38;;;2.09;100.00
15971;BME280;59785;52.582;13.892;2022-11-15T04:10:19;100663.78;;;2.06;100.00
15971;BME280;59785;52.582;13.892;2022-11-15T04:13:04;100663.25;;;2.01;100.00
15971;BME280;59785;52.582;13.892;2022-11-15T04:15:48;100665.06;;;2.01;100.00
15971;BME280;59785;52.582;13.892;2022-11-15T04:18:33;100664.16;;;1.87;100.00
15971;BME280;59785;52.582;13.892;2022-11-15T04:21:18;100659.81;;;1.86;100.00
15971;BME280;59785;52.582;13.892;2022-11-15T04:24:21;100671.44;;;1.84;100.00
15971;BME280;59785;52.582;13.892;2022-11-15T04:27:06;100662.66;;;1.83;100.00
15971;BME280;59785;52.582;13.892;2022-11-15T04:29:51;100656.50;;;1.83;100.00
15971;BME280;59785;52.582;13.892;2022-11-15T04:32:35;100652.47;;;1.77;100.00
15971;BME280;59785;52.582;13.892;2022-11-15T04:35:20;100651.94;;;1.72;100.00
15971;BME280;59785;52.582;13.892;2022-11-15T04:38:08;100643.53;;;1.65;100.00
15971;BME280;59785;52.582;13.892;2022-11-15T04:40:53;100643.34;;;1.68;100.00
15971;BME280;59785;52.582;13.892;2022-11-15T04:43:38;100635.94;;;1.61;100.00
15971;BME280;59785;52.582;13.892;2022-11-15T04:46:23;100630.09;;;1.55;100.00
15971;BME280;59785;52.582;13.892;2022-11-15T04:49:08;100624.66;;;1.44;100.00
15971;BME280;59785;52.582;13.892;2022-11-15T04:51:52;100624.47;;;1.47;100.00
15971;BME280;59785;52.582;13.892;2022-11-15T04:54:37;100624.28;;;1.50;100.00
15971;BME280;59785;52.582;13.892;2022-11-15T04:57:21;100630.56;;;1.48;100.00
15971;BME280;59785;52.582;13.892;2022-11-15T05:00:09;100627.09;;;1.47;100.00
15971;BME280;59785;52.582;13.892;2022-11-15T05:02:55;100630.13;;;1.41;100.00
15971;BME280;59785;52.582;13.892;2022-11-15T05:05:59;100626.34;;;1.45;100.00
15971;BME280;59785;52.582;13.892;2022-11-15T05:08:43;100622.78;;;1.46;100.00
15971;BME280;59785;52.582;13.892;2022-11-15T05:11:28;100621.16;;;1.44;100.00
15971;BME280;59785;52.582;13.892;2022-11-15T05:14:13;100625.28;;;1.48;100.00
15971;BME280;59785;52.582;13.892;2022-11-15T05:16:57;100625.09;;;1.51;100.00
15971;BME280;59785;52.582;13.892;2022-11-15T05:19:42;100623.31;;;1.51;100.00
15971;BME280;59785;52.582;13.892;2022-11-15T05:22:26;100620.66;;;1.51;100.00
15971;BME280;59785;52.582;13.892;2022-11-15T05:25:11;100619.00;;;1.50;100.00
15971;BME280;59785;52.582;13.892;2022-11-15T05:27:56;100623.72;;;1.45;100.00
15971;BME280;59785;52.582;13.892;2022-11-15T05:30:40;100621.06;;;1.45;100.00
15971;BME280;59785;52.582;13.892;2022-11-15T05:33:25;100617.28;;;1.49;100.00
15971;BME280;59785;52.582;13.892;2022-11-15T05:39:13;100624.38;;;1.49;100.00
15971;BME280;59785;52.582;13.892;2022-11-15T05:42:08;100622.56;;;1.49;100.00
15971;BME280;59785;52.582;13.892;2022-11-15T05:44:53;100625.59;;;1.43;100.00
15971;BME280;59785;52.582;13.892;2022-11-15T05:47:38;100615.88;;;1.44;100.00
15971;BME280;59785;52.582;13.892;2022-11-15T05:50:23;100616.53;;;1.47;100.00
15971;BME280;59785;52.582;13.892;2022-11-15T05:53:10;100613.38;;;1.42;100.00
15971;BME280;59785;52.582;13.892;2022-11-15T05:55:56;100613.25;;;1.44;100.00
15971;BME280;59785;52.582;13.892;2022-11-15T05:58:41;100620.31;;;1.43;100.00
15971;BME280;59785;52.582;13.892;2022-11-15T06:01:26;100617.78;;;1.42;100.00
15971;BME280;59785;52.582;13.892;2022-11-15T06:04:12;100621.63;;;1.50;100.00
15971;BME280;59785;52.582;13.892;2022-11-15T06:06:58;100627.75;;;1.51;100.00
15971;BME280;59785;52.582;13.892;2022-11-15T06:09:43;100632.47;;;1.46;100.00
15971;BME280;59785;52.582;13.892;2022-11-15T06:12:28;100624.00;;;1.41;100.00
15971;BME280;59785;52.582;13.892;2022-11-15T06:15:12;100626.34;;;1.45;100.00
15971;BME280;59785;52.582;13.892;2022-11-15T06:17:57;100640.59;;;1.43;100.00
15971;BME280;59785;52.582;13.892;2022-11-15T06:20:42;100636.25;;;1.42;100.00
15971;BME280;59785;52.582;13.892;2022-11-15T06:23:27;100632.78;;;1.41;100.00
15971;BME280;59785;52.582;13.892;2022-11-15T06:26:13;100629.00;;;1.45;100.00
15971;BME280;59785;52.582;13.892;2022-11-15T06:28:58;100638.41;;;1.49;100.00
15971;BME280;59785;52.582;13.892;2022-11-15T06:31:42;100635.75;;;1.49;100.00
15971;BME280;59785;52.582;13.892;2022-11-15T06:34:26;100638.97;;;1.54;100.00
15971;BME280;59785;52.582;13.892;2022-11-15T06:37:11;100641.53;;;1.56;100.00
15971;BME280;59785;52.582;13.892;2022-11-15T06:39:56;100643.28;;;1.55;100.00
15971;BME280;59785;52.582;13.892;2022-11-15T06:42:41;100638.66;;;1.59;100.00
15971;BME280;59785;52.582;13.892;2022-11-15T06:45:26;100641.22;;;1.61;100.00
15971;BME280;59785;52.582;13.892;2022-11-15T06:48:10;100641.78;;;1.66;100.00
15971;BME280;59785;52.582;13.892;2022-11-15T06:50:57;100643.34;;;1.68;100.00
15971;BME280;59785;52.582;13.892;2022-11-15T06:53:42;100648.34;;;1.73;100.00
15971;BME280;59785;52.582;13.892;2022-11-15T06:56:26;100646.16;;;1.80;100.00
15971;BME280;59785;52.582;13.892;2022-11-15T06:59:11;100650.19;;;1.85;100.00
15971;BME280;59785;52.582;13.892;2022-11-15T07:01:56;100646.50;;;1.88;100.00
15971;BME280;59785;52.582;13.892;2022-11-15T07:04:41;100652.09;;;1.83;100.00
15971;BME280;59785;52.582;13.892;2022-11-15T07:07:25;100656.22;;;1.87;100.00
15971;BME280;59785;52.582;13.892;2022-11-15T07:10:10;100651.38;;;1.94;100.00
15971;BME280;59785;52.582;13.892;2022-11-15T07:12:55;100659.03;;;1.99;100.00
15971;BME280;59785;52.582;13.892;2022-11-15T07:15:39;100654.66;;;1.97;100.00
15971;BME280;59785;52.582;13.892;2022-11-15T07:18:24;100653.63;;;2.00;100.00
15971;BME280;59785;52.582;13.892;2022-11-15T07:21:10;100656.38;;;1.99;100.00
15971;BME280;59785;52.582;13.892;2022-11-15T07:23:55;100655.97;;;2.05;100.00
15971;BME280;59785;52.582;13.892;2022-11-15T07:26:39;100651.94;;;2.12;100.00
15971;BME280;59785;52.582;13.892;2022-11-15T07:29:24;100655.78;;;2.21;100.00
15971;BME280;59785;52.582;13.892;2022-11-15T07:32:09;100660.56;;;2.28;100.00
15971;BME280;59785;52.582;13.892;2022-11-15T07:34:54;100656.69;;;2.34;100.00
15971;BME280;59785;52.582;13.892;2022-11-15T07:37:38;100659.75;;;2.41;100.00
15971;BME280;59785;52.582;13.892;2022-11-15T07:40:23;100664.31;;;2.51;100.00
15971;BME280;59785;52.582;13.892;2022-11-15T07:43:08;100667.38;;;2.58;100.00
15971;BME280;59785;52.582;13.892;2022-11-15T07:45:53;100658.72;;;2.69;100.00
15971;BME280;59785;52.582;13.892;2022-11-15T07:48:42;100678.31;;;2.79;100.00
15971;BME280;59785;52.582;13.892;2022-11-15T07:51:28;100659.91;;;2.90;100.00
15971;BME280;59785;52.582;13.892;2022-11-15T07:54:13;100651.09;;;3.03;100.00
15971;BME280;59785;52.582;13.892;2022-11-15T07:56:57;100653.09;;;3.12;100.00
15971;BME280;59785;52.582;13.892;2022-11-15T07:59:50;100652.97;;;3.26;100.00
15971;BME280;59785;52.582;13.892;2022-11-15T08:02:34;100657.50;;;3.37;100.00
15971;BME280;59785;52.582;13.892;2022-11-15T08:05:19;100646.38;;;3.45;100.00
15971;BME280;59785;52.582;13.892;2022-11-15T08:08:04;100647.28;;;3.57;100.00
15971;BME280;59785;52.582;13.892;2022-11-15T08:10:49;100648.94;;;3.70;100.00
15971;BME280;59785;52.582;13.892;2022-11-15T08:13:33;100651.03;;;3.78;100.00
15971;BME280;59785;52.582;13.892;2022-11-15T08:16:18;100649.28;;;3.90;100.00
15971;BME280;59785;52.582;13.892;2022-11-15T08:19:03;100654.75;;;4.00;100.00
15971;BME280;59785;52.582;13.892;2022-11-15T08:21:47;100653.34;;;4.07;100.00
15971;BME280;59785;52.582;13.892;2022-11-15T08:24:31;100652.53;;;4.18;100.00
15971;BME280;59785;52.582;13.892;2022-11-15T08:27:16;100647.16;;;4.30;100.00
15971;BME280;59785;52.582;13.892;2022-11-15T08:30:02;100640.19;;;4.41;100.00
15971;BME280;59785;52.582;13.892;2022-11-15T08:32:48;100643.09;;;4.49;100.00
15971;BME280;59785;52.582;13.892;2022-11-15T08:35:33;100650.13;;;4.61;100.00
15971;BME280;59785;52.582;13.892;2022-11-15T08:38:17;100636.50;;;4.66;100.00
15971;BME280;59785;52.582;13.892;2022-11-15T08:41:04;100627.69;;;4.77;100.00
15971;BME280;59785;52.582;13.892;2022-11-15T08:43:48;100635.44;;;4.91;100.00
15971;BME280;59785;52.582;13.892;2022-11-15T08:46:33;100630.00;;;5.04;100.00
15971;BME280;59785;52.582;13.892;2022-11-15T08:49:18;100634.47;;;5.14;100.00
15971;BME280;59785;52.582;13.892;2022-11-15T08:52:02;100631.94;;;5.24;100.00
15971;BME280;59785;52.582;13.892;2022-11-15T08:54:47;100635.41;;;5.36;100.00
15971;BME280;59785;52.582;13.892;2022-11-15T08:57:32;100627.44;;;5.47;100.00
15971;BME280;59785;52.582;13.892;2022-11-15T09:00:17;100624.06;;;5.57;100.00
15971;BME280;59785;52.582;13.892;2022-11-15T09:03:05;100624.38;;;5.63;100.00
15971;BME280;59785;52.582;13.892;2022-11-15T09:05:54;100632.94;;;5.78;100.00
15971;BME280;59785;52.582;13.892;2022-11-15T09:08:38;100633.84;;;5.88;100.00
15971;BME280;59785;52.582;13.892;2022-11-15T09:11:40;100632.16;;;5.99;100.00
15971;BME280;59785;52.582;13.892;2022-11-15T09:14:24;100640.34;;;6.07;100.00
15971;BME280;59785;52.582;13.892;2022-11-15T09:17:09;100628.81;;;6.18;100.00
15971;BME280;59785;52.582;13.892;2022-11-15T09:19:54;100628.78;;;6.29;100.00
15971;BME280;59785;52.582;13.892;2022-11-15T09:22:38;100628.84;;;6.39;100.00
15971;BME280;59785;52.582;13.892;2022-11-15T09:25:23;100630.56;;;6.49;100.00
15971;BME280;59785;52.582;13.892;2022-11-15T09:28:08;100615.66;;;6.58;100.00
15971;BME280;59785;52.582;13.892;2022-11-15T09:30:56;100617.53;;;6.67;100.00
15971;BME280;59785;52.582;13.892;2022-11-15T09:33:45;100615.75;;;6.78;100.00
15971;BME280;59785;52.582;13.892;2022-11-15T09:36:30;100628.28;;;6.87;100.00
15971;BME280;59785;52.582;13.892;2022-11-15T09:39:14;100623.84;;;6.97;100.00
15971;BME280;59785;52.582;13.892;2022-11-15T09:42:12;100627.50;;;7.06;100.00
15971;BME280;59785;52.582;13.892;2022-11-15T09:45:13;100631.91;;;7.17;100.00
15971;BME280;59785;52.582;13.892;2022-11-15T09:48:20;100626.88;;;7.23;100.00
15971;BME280;59785;52.582;13.892;2022-11-15T09:51:35;100628.75;;;7.33;100.00
15971;BME280;59785;52.582;13.892;2022-11-15T09:54:10;100627.09;;;7.41;100.00
15971;BME280;59785;52.582;13.892;2022-11-15T09:57:13;100612.53;;;7.45;100.00
15971;BME280;59785;52.582;13.892;2022-11-15T10:00:01;100614.22;;;7.56;100.00
15971;BME280;59785;52.582;13.892;2022-11-15T10:03:02;100611.69;;;7.64;100.00
15971;BME280;59785;52.582;13.892;2022-11-15T10:05:40;100611.56;;;7.76;100.00
15971;BME280;59785;52.582;13.892;2022-11-15T10:08:46;100603.72;;;7.84;100.00
15971;BME280;59785;52.582;13.892;2022-11-15T10:11:22;100589.53;;;7.93;100.00
15971;BME280;59785;52.582;13.892;2022-11-15T10:14:11;100592.34;;;8.01;100.00
15971;BME280;59785;52.582;13.892;2022-11-15T10:17:06;100587.00;;;8.11;100.00
15971;BME280;59785;52.582;13.892;2022-11-15T10:20:05;100587.16;;;8.19;100.00
15971;BME280;59785;52.582;13.892;2022-11-15T10:22:40;100577.56;;;8.26;100.00
15971;BME280;59785;52.582;13.892;2022-11-15T10:25:16;100574.88;;;8.36;100.00
15971;BME280;59785;52.582;13.892;2022-11-15T10:27:44;100572.91;;;8.38;100.00
15971;BME280;59785;52.582;13.892;2022-11-15T10:30:15;100566.75;;;8.47;100.00
15971;BME280;59785;52.582;13.892;2022-11-15T10:32:43;100572.38;;;8.54;100.00
15971;BME280;59785;52.582;13.892;2022-11-15T10:35:36;100568.81;;;8.63;100.00
15971;BME280;59785;52.582;13.892;2022-11-15T10:38:07;100561.91;;;8.71;100.00
15971;BME280;59785;52.582;13.892;2022-11-15T10:40:34;100558.19;;;8.81;100.00
15971;BME280;59785;52.582;13.892;2022-11-15T10:45:37;100546.34;;;8.94;100.00
15971;BME280;59785;52.582;13.892;2022-11-15T10:50:41;100538.66;;;9.08;100.00
15971;BME280;59785;52.582;13.892;2022-11-15T10:53:21;100545.78;;;9.18;100.00
15971;BME280;59785;52.582;13.892;2022-11-15T10:55:51;100537.78;;;9.18;100.00
15971;BME280;59785;52.582;13.892;2022-11-15T10:58:30;100532.13;;;9.21;100.00
15971;BME280;59785;52.582;13.892;2022-11-15T11:01:27;100527.16;;;9.26;100.00
15971;BME280;59785;52.582;13.892;2022-11-15T11:04:08;100520.78;;;9.37;100.00
15971;BME280;59785;52.582;13.892;2022-11-15T11:06:54;100520.31;;;9.41;100.00
15971;BME280;59785;52.582;13.892;2022-11-15T11:09:33;100519.41;;;9.51;100.00
15971;BME280;59785;52.582;13.892;2022-11-15T11:12:00;100518.78;;;9.57;100.00
15971;BME280;59785;52.582;13.892;2022-11-15T11:14:37;100516.91;;;9.67;100.00
15971;BME280;59785;52.582;13.892;2022-11-15T11:23:32;100511.69;;;9.83;100.00
15971;BME280;59785;52.582;13.892;2022-11-15T11:29:01;100509.59;;;9.95;99.82
15971;BME280;59785;52.582;13.892;2022-11-15T11:31:49;100505.94;;;9.96;99.03
15971;BME280;59785;52.582;13.892;2022-11-15T11:34:46;100498.78;;;10.05;98.30
15971;BME280;59785;52.582;13.892;2022-11-15T11:42:24;100493.91;;;10.00;97.14
15971;BME280;59785;52.582;13.892;2022-11-15T11:47:46;100489.09;;;10.04;96.66
15971;BME280;59785;52.582;13.892;2022-11-15T11:50:22;100477.91;;;10.09;96.37
15971;BME280;59785;52.582;13.892;2022-11-15T11:52:59;100481.13;;;10.12;95.74
15971;BME280;59785;52.582;13.892;2022-11-15T11:55:51;100471.28;;;10.21;95.99
15971;BME280;59785;52.582;13.892;2022-11-15T11:58:21;100476.50;;;10.22;96.04
15971;BME280;59785;52.582;13.892;2022-11-15T12:01:15;100478.00;;;10.25;96.82
15971;BME280;59785;52.582;13.892;2022-11-15T12:03:48;100462.47;;;10.29;97.45
15971;BME280;59785;52.582;13.892;2022-11-15T12:06:31;100462.63;;;10.27;96.90
15971;BME280;59785;52.582;13.892;2022-11-15T12:09:06;100466.16;;;10.27;96.99
15971;BME280;59785;52.582;13.892;2022-11-15T12:11:55;100464.88;;;10.32;96.73
15971;BME280;59785;52.582;13.892;2022-11-15T12:14:36;100461.69;;;10.36;96.70
15971;BME280;59785;52.582;13.892;2022-11-15T12:17:04;100464.91;;;10.40;96.39
15971;BME280;59785;52.582;13.892;2022-11-15T12:19:31;100463.28;;;10.47;96.54
15971;BME280;59785;52.582;13.892;2022-11-15T12:22:03;100463.81;;;10.51;96.54
15971;BME280;59785;52.582;13.892;2022-11-15T12:24:40;100455.44;;;10.54;95.98
15971;BME280;59785;52.582;13.892;2022-11-15T12:27:20;100453.75;;;10.53;95.61
15971;BME280;59785;52.582;13.892;2022-11-15T12:29:56;100451.75;;;10.55;95.27
15971;BME280;59785;52.582;13.892;2022-11-15T12:32:30;100445.59;;;10.62;94.29
15971;BME280;59785;52.582;13.892;2022-11-15T12:34:58;100443.75;;;10.63;94.34
15971;BME280;59785;52.582;13.892;2022-11-15T12:42:42;100439.06;;;10.65;94.16
15971;BME280;59785;52.582;13.892;2022-11-15T12:45:34;100437.56;;;10.62;94.04
15971;BME280;59785;52.582;13.892;2022-11-15T12:58:58;100429.84;;;10.68;94.96
15971;BME280;59785;52.582;13.892;2022-11-15T13:06:49;100414.16;;;10.73;95.42
15971;BME280;59785;52.582;13.892;2022-11-15T13:12:10;100404.75;;;10.69;95.71
15971;BME280;59785;52.582;13.892;2022-11-15T13:14:42;100410.28;;;10.75;95.06
15971;BME280;59785;52.582;13.892;2022-11-15T13:20:14;100396.72;;;10.69;96.97
15971;BME280;59785;52.582;13.892;2022-11-15T13:22:58;100397.69;;;10.59;97.72
15971;BME280;59785;52.582;13.892;2022-11-15T13:30:36;100400.13;;;10.44;98.42
15971;BME280;59785;52.582;13.892;2022-11-15T13:33:10;100403.13;;;10.33;98.75
15971;BME280;59785;52.582;13.892;2022-11-15T13:35:41;100396.31;;;10.21;98.89
15971;BME280;59785;52.582;13.892;2022-11-15T13:38:19;100401.47;;;10.14;99.31
15971;BME280;59785;52.582;13.892;2022-11-15T13:40:50;100401.44;;;10.06;99.96
15971;BME280;59785;52.582;13.892;2022-11-15T13:43:27;100403.06;;;9.99;100.00
15971;BME280;59785;52.582;13.892;2022-11-15T13:46:07;100400.03;;;9.94;100.00
15971;BME280;59785;52.582;13.892;2022-11-15T13:48:34;100405.31;;;9.85;100.00
15971;BME280;59785;52.582;13.892;2022-11-15T13:51:03;100413.44;;;9.76;100.00
15971;BME280;59785;52.582;13.892;2022-11-15T13:53:32;100416.63;;;9.71;100.00
15971;BME280;59785;52.582;13.892;2022-11-15T13:55:59;100412.72;;;9.65;100.00
15971;BME280;59785;52.582;13.892;2022-11-15T13:58:25;100408.00;;;9.59;100.00
15971;BME280;59785;52.582;13.892;2022-11-15T14:01:00;100412.97;;;9.54;100.00
15971;BME280;59785;52.582;13.892;2022-11-15T14:03:27;100417.09;;;9.48;100.00
15971;BME280;59785;52.582;13.892;2022-11-15T14:06:10;100414.66;;;9.37;100.00
15971;BME280;59785;52.582;13.892;2022-11-15T14:08:57;100413.75;;;9.28;100.00
15971;BME280;59785;52.582;13.892;2022-11-15T14:11:24;100409.16;;;9.21;100.00
15971;BME280;59785;52.582;13.892;2022-11-15T14:16:36;100410.38;;;9.08;100.00
15971;BME280;59785;52.582;13.892;2022-11-15T14:19:04;100411.00;;;9.02;100.00
15971;BME280;59785;52.582;13.892;2022-11-15T14:21:31;100410.28;;;9.00;100.00
15971;BME280;59785;52.582;13.892;2022-11-15T14:24:17;100402.91;;;8.94;100.00
15971;BME280;59785;52.582;13.892;2022-11-15T14:26:43;100404.19;;;8.90;100.00
15971;BME280;59785;52.582;13.892;2022-11-15T14:29:29;100401.97;;;8.85;100.00
15971;BME280;59785;52.582;13.892;2022-11-15T14:32:24;100406.38;;;8.77;100.00
15971;BME280;59785;52.582;13.892;2022-11-15T14:34:58;100401.94;;;8.67;100.00
15971;BME280;59785;52.582;13.892;2022-11-15T14:37:29;100408.34;;;8.57;100.00
15971;BME280;59785;52.582;13.892;2022-11-15T14:39:57;100406.00;;;8.34;100.00
15971;BME280;59785;52.582;13.892;2022-11-15T14:42:24;100400.72;;;8.24;100.00
15971;BME280;59785;52.582;13.892;2022-11-15T14:44:50;100397.25;;;8.14;100.00
15971;BME280;59785;52.582;13.892;2022-11-15T14:47:17;100399.53;;;7.99;100.00
15971;BME280;59785;52.582;13.892;2022-11-15T14:49:44;100399.56;;;7.89;100.00
15971;BME280;59785;52.582;13.892;2022-11-15T14:52:28;100405.81;;;7.80;100.00
15971;BME280;59785;52.582;13.892;2022-11-15T14:54:58;100399.22;;;7.65;100.00
15971;BME280;59785;52.582;13.892;2022-11-15T14:57:25;100392.22;;;7.54;100.00
15971;BME280;59785;52.582;13.892;2022-11-15T14:59:51;100404.16;;;7.40;100.00
15971;BME280;59785;52.582;13.892;2022-11-15T15:02:23;100392.69;;;7.30;100.00
15971;BME280;59785;52.582;13.892;2022-11-15T15:04:50;100397.56;;;7.25;100.00
15971;BME280;59785;52.582;13.892;2022-11-15T15:07:17;100388.31;;;7.19;100.00
15971;BME280;59785;52.582;13.892;2022-11-15T15:09:44;100390.28;;;7.07;100.00
15971;BME280;59785;52.582;13.892;2022-11-15T15:12:19;100387.63;;;6.98;100.00
15971;BME280;59785;52.582;13.892;2022-11-15T15:14:47;100388.31;;;6.90;100.00
15971;BME280;59785;52.582;13.892;2022-11-15T15:17:14;100380.88;;;6.84;100.00
15971;BME280;59785;52.582;13.892;2022-11-15T15:19:40;100375.28;;;6.77;100.00
15971;BME280;59785;52.582;13.892;2022-11-15T15:22:13;100386.44;;;6.71;100.00
15971;BME280;59785;52.582;13.892;2022-11-15T15:24:39;100377.34;;;6.64;100.00
15971;BME280;59785;52.582;13.892;2022-11-15T15:27:06;100378.88;;;6.57;100.00
15971;BME280;59785;52.582;13.892;2022-11-15T15:29:32;100366.13;;;6.50;100.00
15971;BME280;59785;52.582;13.892;2022-11-15T15:31:58;100370.03;;;6.46;100.00
15971;BME280;59785;52.582;13.892;2022-11-15T15:34:24;100366.66;;;6.44;100.00
15971;BME280;59785;52.582;13.892;2022-11-15T15:37:22;100365.66;;;6.36;100.00
15971;BME280;59785;52.582;13.892;2022-11-15T15:39:54;100374.88;;;6.31;100.00
15971;BME280;59785;52.582;13.892;2022-11-15T15:42:21;100373.72;;;6.24;100.00
15971;BME280;59785;52.582;13.892;2022-11-15T15:44:48;100377.06;;;6.17;100.00
15971;BME280;59785;52.582;13.892;2022-11-15T15:47:21;100369.63;;;6.10;100.00
15971;BME280;59785;52.582;13.892;2022-11-15T15:49:48;100362.19;;;6.04;100.00
15971;BME280;59785;52.582;13.892;2022-11-15T15:52:15;100357.84;;;6.03;100.00